Warning: Javascript must be enabled to use all the features on this page!


Page Loading - Please Wait...

Click to hideNews Bulletins

Peak Streamflow for the Nation

USGS 06441500 BAD R NEAR FORT PIERRE,SD

Stanley County, South Dakota
Hydrologic Unit Code 10140102
Latitude  44°19'36", Longitude 100°23'02" NAD27
Drainage area 3,147  square miles
Contributing drainage area 3,147  square miles
Gage datum 1,429.08 feet above NAVD88
Output formats
Table
Graph
Tab-separated file
peakfq (watstore) format
Reselect output format
Water
Year
Date Gage
Height
(feet)
Stream-
flow
(cfs)
1905 1905-07 32.90Bd 70,0002,7,Bd
1915 1915 29.60Bm  
1920 1920-06 27.40Bd  
1927 1927-04 30.89Bd 55,0002,7,Bd
1929 1929-04-25 21.18 11,800
1930 1930-08-19 20.20 10,200
1931 1931-01-30 8.40 2,300
1932 1932-05-07 17.24 7,350
1934 1934-07-26 9.98 3,100
1935 1935-04-26 12.60 4,480
1936 1936-03-11 5.11 844
1937 1937-06-13 21.85 12,400
1938 1938-09-08 17.60 8,700
1939 1939-08-27 9.002 2,720
1940 1940-04-01 5.83 1,070
1941 1941-06-11 11.22 4,100
1942 1942-05-01 27.80 34,200
1943 1943-03-23 16.04 6,930
1944 1944-04-01 10.75 3,930
1945 1945-06-13 6.352 1,240
1946 1946-07-02 12.53 4,600
1947 1947-06-22 8.792 2,290
1948 1948-08-09 15.96 7,180
1949 1949-03-27 10.812 3,350
1950 1950-04-02 23.40 16,700
1951 1951-06-08 19.50 10,500
1952 1952-04-07 27.032 28,100
1953 1953-05-03 19.80 11,700
1954 1954-06-11 23.35 16,600
1955 1955-06-01 13.682 5,120
1956 1956-03-20 10.412 3,050
1957 1957-06-11 15.26 6,390
1958 1958-04-05 10.41 3,050
1959 1959-05-30 8.06 1,640
1960 1960-03-27 23.36 16,600
1961 1961-05-17 21.93 12,800
1962 1962-05-21 19.70 10,500
1963 1963-09-04 11.88 3,800
1964 1964-06-22 22.12 12,200
1965 1965-07-19 11.71 3,480
1966 1966-03-18 20.512 10,700
1967 1967-06-18 29.55 43,800
1968 1968-06-09 16.64 6,500
1969 1969-07-17 17.11 7,140
1970 1970-04-27 12.30 3,800
1971 1971-04-20 20.88 10,300
1972 1972-05-02 19.40 9,120
1973 1973-05-31 8.52 1,850
1974 1974-04-20 10.18 2,560
1975 1975-04-09 12.20 3,770
1976 1976-02-10 8.23 1,560
1977 1977-06-22 17.94 6,740
1978 1978-03-20 25.52 19,200
1979 1979-07-24 13.45 3,570
1980 1980-07-05 9.26 2,150
1981 1980-10-16 7.25 1,140
1982 1982-05-14 24.05 15,600
1983 1983-05-02 19.41 9,130
1984 1984-06-04 25.47 13,500
1985 1985-03-16 9.542 2,480
1986 1986-05-09 24.64 16,300
1987 1987-03-21 24.38 13,600
1988 1988-07-03 6.202 578
1989 1989-03-12 8.39 1,210
1990 1990-06-02 9.49 1,990
1991 1991-05-31 19.71 8,050
1992 1992-07-14 8.99 1,890
1993 1993-07-12 17.872 6,160
1994 1994-03-04 22.581 11,000
1995 1995-05-09 23.61 14,500
1996 1996-05-27 26.10 18,100
1997 1997-05-02 21.742 14,700
1998 1998-07-26 11.76 4,250
1999 1999-09-03 22.44 14,700
2000 2000-04-19 21.34 13,200
2001 2001-03-14 21.951 7,500
2002 2002-03-28 6.41 1,220
2003 2003-05-09 13.17 5,460
2004 2004-09-23 12.04 4,320
2005 2005-05-12 11.89 4,870
2006 2006-08-20 7.23 1,500
2007 2007-06-16 9.22 2,630
2008 2008-06-06 17.16 8,780
2009 2009-02-10 18.96 10,600
2010 2010-03-10 20.76 12,700
2011 2011-06-21 27.27 23,300
2012 2011-10-07 6.862 981
2013 2013-05-31 9.83 2,640
2014 2013-10-15 15.86 7,610
2015 2015-06-22 20.101 11,600
2016 2016-04-28 13.59 5,730
2017 2017-08-21 8.622 1,920
2018 2018-06-08 8.32 1,830
2019 2019-03-25 23.48 18,400
2020 2020-05-26 11.092 4,590
?
  Peak Gage-Height Qualification Codes.
?
  Peak Streamflow Qualification Codes.